Time;durP1;ratioP1;P1;durP2;ratioP2;P2;SDS_P1;SDS_P2;PMS_P1;PMS_P2;Temp;Humidity;BMP_temperature;BMP_pressure;BME280_temperature;BME280_humidity;BME280_pressure;Samples;Min_cycle;Max_cycle;Signal;HPM_P1;HPM_P2
2022/08/28 00:00:52;;;;;;;0.00;0.00;;;;;;;;;;5060462;28;20558;-66
2022/08/28 00:03:19;;;;;;;0.00;0.00;;;;;;;;;;5075244;28;20217;-65
2022/08/28 00:05:45;;;;;;;0.00;0.00;;;;;;;;;;5060243;28;20243;-66
2022/08/28 00:08:13;;;;;;;0.00;0.00;;;;;;;;;;5075226;28;20532;-67
2022/08/28 00:10:40;;;;;;;0.10;0.10;;;;;;;;;;5059211;28;20238;-67
2022/08/28 00:13:07;;;;;;;0.00;0.00;;;;;;;;;;5075795;28;20278;-66
2022/08/28 00:15:35;;;;;;;0.00;0.00;;;;;;;;;;5058666;28;20426;-66
2022/08/28 00:18:03;;;;;;;0.00;0.00;;;;;;;;;;5076097;28;20193;-67
2022/08/28 00:20:31;;;;;;;0.00;0.00;;;;;;;;;;5057770;28;20241;-66
2022/08/28 00:22:59;;;;;;;0.00;0.00;;;;;;;;;;5076813;28;20204;-66
2022/08/28 00:25:26;;;;;;;0.00;0.00;;;;;;;;;;5057276;28;20924;-68
2022/08/28 00:27:52;;;;;;;0.03;0.03;;;;;;;;;;5077386;28;20212;-67
2022/08/28 00:30:19;;;;;;;0.00;0.00;;;;;;;;;;5055763;28;20235;-66
2022/08/28 00:32:45;;;;;;;0.00;0.00;;;;;;;;;;5078207;28;20257;-66
2022/08/28 00:35:13;;;;;;;0.10;0.10;;;;;;;;;;5055181;28;20206;-67
2022/08/28 00:37:39;;;;;;;0.00;0.00;;;;;;;;;;5079205;28;20200;-66
2022/08/28 00:40:07;;;;;;;0.10;0.10;;;;;;;;;;5055851;28;20244;-67
2022/08/28 00:42:34;;;;;;;0.00;0.00;;;;;;;;;;5079622;28;20505;-68
2022/08/28 00:45:00;;;;;;;0.00;0.00;;;;;;;;;;5064505;28;20225;-67
2022/08/28 00:47:27;;;;;;;0.10;0.10;;;;;;;;;;5069615;28;20243;-66
2022/08/28 00:49:54;;;;;;;0.00;0.00;;;;;;;;;;5064307;28;20221;-66
2022/08/28 00:52:22;;;;;;;0.00;0.00;;;;;;;;;;5069571;28;20445;-66
2022/08/28 00:54:51;;;;;;;0.00;0.00;;;;;;;;;;5064282;28;20439;-66
2022/08/28 00:57:18;;;;;;;0.00;0.00;;;;;;;;;;5069418;28;20298;-67
2022/08/28 00:59:45;;;;;;;0.08;0.08;;;;;;;;;;5064124;28;20208;-66
2022/08/28 01:02:11;;;;;;;0.00;0.00;;;;;;;;;;5069274;28;20463;-67
2022/08/28 01:04:38;;;;;;;0.00;0.00;;;;;;;;;;5064099;28;20489;-66
2022/08/28 01:07:06;;;;;;;0.10;0.10;;;;;;;;;;5069232;28;20248;-66
2022/08/28 01:09:34;;;;;;;0.00;0.00;;;;;;;;;;5064107;28;20238;-67
2022/08/28 01:12:02;;;;;;;0.10;0.10;;;;;;;;;;5068495;28;20242;-66
2022/08/28 01:14:30;;;;;;;0.00;0.00;;;;;;;;;;5064187;28;20210;-66
2022/08/28 01:16:57;;;;;;;0.00;0.00;;;;;;;;;;5068019;28;20270;-65
2022/08/28 01:19:28;;;;;;;0.00;0.00;;;;;;;;;;5064800;28;20213;-65
2022/08/28 01:21:58;;;;;;;0.00;0.00;;;;;;;;;;5067558;28;20242;-66
2022/08/28 01:24:25;;;;;;;0.08;0.08;;;;;;;;;;5064568;28;20442;-66
2022/08/28 01:26:52;;;;;;;0.00;0.00;;;;;;;;;;5067056;28;20477;-66
2022/08/28 01:29:19;;;;;;;0.00;0.00;;;;;;;;;;5065375;28;20241;-67
2022/08/28 01:31:47;;;;;;;0.10;0.10;;;;;;;;;;5066317;28;20247;-66
2022/08/28 01:34:14;;;;;;;0.00;0.00;;;;;;;;;;5065954;28;20207;-67
2022/08/28 01:36:40;;;;;;;0.00;0.00;;;;;;;;;;5065327;28;20240;-66
2022/08/28 01:39:08;;;;;;;0.05;0.05;;;;;;;;;;5066249;28;20213;-66
2022/08/28 01:41:39;;;;;;;0.00;0.00;;;;;;;;;;5063615;28;20492;-66
2022/08/28 01:44:05;;;;;;;0.00;0.00;;;;;;;;;;5066642;28;20265;-67
2022/08/28 01:46:32;;;;;;;0.00;0.00;;;;;;;;;;5063953;28;20551;-66
2022/08/28 01:48:58;;;;;;;0.00;0.00;;;;;;;;;;5067539;28;20466;-66
2022/08/28 01:51:25;;;;;;;0.00;0.00;;;;;;;;;;5063011;28;20240;-67
2022/08/28 01:53:51;;;;;;;0.00;0.00;;;;;;;;;;5068373;28;20225;-66
2022/08/28 01:56:18;;;;;;;0.00;0.00;;;;;;;;;;5062012;28;20304;-66
2022/08/28 01:58:47;;;;;;;0.00;0.00;;;;;;;;;;5069453;28;20447;-66
2022/08/28 02:01:14;;;;;;;0.00;0.00;;;;;;;;;;5061514;28;20275;-67
2022/08/28 02:03:41;;;;;;;0.00;0.00;;;;;;;;;;5069195;28;20214;-67
2022/08/28 02:06:08;;;;;;;0.00;0.00;;;;;;;;;;5060568;28;20544;-66
2022/08/28 02:08:35;;;;;;;0.00;0.00;;;;;;;;;;5069991;28;20211;-65
2022/08/28 02:11:01;;;;;;;0.00;0.00;;;;;;;;;;5059656;28;20241;-65
2022/08/28 02:13:28;;;;;;;0.00;0.00;;;;;;;;;;5071090;28;20212;-66
2022/08/28 02:15:56;;;;;;;0.03;0.03;;;;;;;;;;5058938;28;20284;-66
2022/08/28 02:18:22;;;;;;;0.00;0.00;;;;;;;;;;5071565;28;20208;-66
2022/08/28 02:20:48;;;;;;;0.00;0.00;;;;;;;;;;5058006;28;20267;-66
2022/08/28 02:23:15;;;;;;;0.00;0.00;;;;;;;;;;5072737;28;20205;-66
2022/08/28 02:25:46;;;;;;;0.00;0.00;;;;;;;;;;5057038;28;20239;-67
2022/08/28 02:28:14;;;;;;;0.00;0.00;;;;;;;;;;5072260;28;20432;-65
2022/08/28 02:30:41;;;;;;;0.00;0.00;;;;;;;;;;5056863;28;20267;-66
2022/08/28 02:33:08;;;;;;;0.00;0.00;;;;;;;;;;5073190;28;20287;-66
2022/08/28 02:35:35;;;;;;;0.08;0.08;;;;;;;;;;5055864;28;20241;-66
2022/08/28 02:38:03;;;;;;;0.00;0.00;;;;;;;;;;5073545;28;20207;-67
2022/08/28 02:40:30;;;;;;;0.00;0.00;;;;;;;;;;5055212;28;20241;-66
2022/08/28 02:42:56;;;;;;;0.00;0.00;;;;;;;;;;5074550;28;20201;-65
2022/08/28 02:45:23;;;;;;;0.00;0.00;;;;;;;;;;5053925;28;20286;-66
2022/08/28 02:47:51;;;;;;;0.00;0.00;;;;;;;;;;5075381;28;20330;-66
2022/08/28 02:50:19;;;;;;;0.00;0.00;;;;;;;;;;5053494;28;20580;-66
2022/08/28 02:52:46;;;;;;;0.08;0.08;;;;;;;;;;5078541;28;20277;-66
2022/08/28 02:55:13;;;;;;;0.00;0.00;;;;;;;;;;5059317;28;20205;-67
2022/08/28 02:57:40;;;;;;;0.05;0.05;;;;;;;;;;5083478;28;20198;-67
2022/08/28 03:00:08;;;;;;;0.00;0.00;;;;;;;;;;5061201;28;20277;-66
2022/08/28 03:02:35;;;;;;;0.10;0.10;;;;;;;;;;5083689;28;20261;-66
2022/08/28 03:05:01;;;;;;;0.00;0.00;;;;;;;;;;5069124;28;20326;-67
2022/08/28 03:07:29;;;;;;;0.00;0.00;;;;;;;;;;5074116;28;20564;-66
2022/08/28 03:09:55;;;;;;;0.00;0.00;;;;;;;;;;5068733;28;20243;-67
2022/08/28 03:12:22;;;;;;;0.00;0.00;;;;;;;;;;5074075;28;20248;-65
2022/08/28 03:14:49;;;;;;;0.00;0.00;;;;;;;;;;5068896;28;20237;-66
2022/08/28 03:17:15;;;;;;;0.00;0.00;;;;;;;;;;5073826;28;20247;-65
2022/08/28 03:19:42;;;;;;;0.00;0.00;;;;;;;;;;5068569;28;20211;-68
2022/08/28 03:22:08;;;;;;;0.00;0.00;;;;;;;;;;5073673;28;20245;-66
2022/08/28 03:24:36;;;;;;;0.05;0.05;;;;;;;;;;5068916;28;20428;-66
2022/08/28 03:27:02;;;;;;;0.00;0.00;;;;;;;;;;5073472;28;20326;-66
2022/08/28 03:29:29;;;;;;;0.03;0.03;;;;;;;;;;5068976;28;20272;-65
2022/08/28 03:31:55;;;;;;;0.10;0.10;;;;;;;;;;5072039;28;20395;-67
2022/08/28 03:34:21;;;;;;;0.00;0.00;;;;;;;;;;5070099;28;20512;-66
2022/08/28 03:36:48;;;;;;;0.10;0.10;;;;;;;;;;5071485;28;20325;-66
2022/08/28 03:39:14;;;;;;;0.10;0.10;;;;;;;;;;5070387;28;20345;-66
2022/08/28 03:41:43;;;;;;;0.00;0.00;;;;;;;;;;5070416;28;20311;-67
2022/08/28 03:44:09;;;;;;;0.00;0.00;;;;;;;;;;5071239;28;20221;-66
2022/08/28 03:46:36;;;;;;;0.00;0.00;;;;;;;;;;5069694;28;20261;-66
2022/08/28 03:49:06;;;;;;;0.10;0.10;;;;;;;;;;5072548;28;20250;-66
2022/08/28 03:51:34;;;;;;;0.00;0.00;;;;;;;;;;5069242;28;20244;-66
2022/08/28 03:54:01;;;;;;;0.00;0.00;;;;;;;;;;5072339;28;20276;-65
2022/08/28 03:56:28;;;;;;;0.00;0.00;;;;;;;;;;5068474;28;20287;-66
2022/08/28 03:58:57;;;;;;;0.00;0.00;;;;;;;;;;5073261;28;20237;-66
2022/08/28 04:01:24;;;;;;;0.10;0.10;;;;;;;;;;5067711;28;20250;-65
2022/08/28 04:03:50;;;;;;;0.00;0.00;;;;;;;;;;5072331;28;20453;-66
2022/08/28 04:06:18;;;;;;;0.05;0.05;;;;;;;;;;5062513;28;20277;-66
2022/08/28 04:08:45;;;;;;;0.00;0.00;;;;;;;;;;5072725;28;20205;-65
2022/08/28 04:11:11;;;;;;;0.00;0.00;;;;;;;;;;5063495;28;20304;-67
2022/08/28 04:13:38;;;;;;;0.00;0.00;;;;;;;;;;5071902;28;20216;-66
2022/08/28 04:16:09;;;;;;;0.10;0.10;;;;;;;;;;5062264;28;20262;-67
2022/08/28 04:18:36;;;;;;;0.05;0.05;;;;;;;;;;5072014;28;20206;-66
2022/08/28 04:21:04;;;;;;;0.00;0.00;;;;;;;;;;5062052;28;20666;-65
2022/08/28 04:23:30;;;;;;;0.00;0.00;;;;;;;;;;5072305;28;20206;-66
2022/08/28 04:25:57;;;;;;;0.00;0.00;;;;;;;;;;5061061;28;20370;-66
2022/08/28 04:28:24;;;;;;;0.00;0.00;;;;;;;;;;5073376;28;20329;-67
2022/08/28 04:30:53;;;;;;;0.00;0.00;;;;;;;;;;5060671;28;20639;-66
2022/08/28 04:33:21;;;;;;;0.00;0.00;;;;;;;;;;5073716;28;20210;-65
2022/08/28 04:35:48;;;;;;;0.00;0.00;;;;;;;;;;5059952;28;20307;-68
2022/08/28 04:38:14;;;;;;;0.00;0.00;;;;;;;;;;5074798;28;20407;-66
2022/08/28 04:40:41;;;;;;;0.10;0.10;;;;;;;;;;5058852;28;20240;-66
2022/08/28 04:43:10;;;;;;;0.08;0.08;;;;;;;;;;5075289;28;20315;-66
2022/08/28 04:45:38;;;;;;;0.00;0.00;;;;;;;;;;5058158;28;20321;-66
2022/08/28 04:48:05;;;;;;;0.00;0.00;;;;;;;;;;5075167;28;20505;-67
2022/08/28 04:50:32;;;;;;;0.00;0.00;;;;;;;;;;5057494;28;20489;-67
2022/08/28 04:52:59;;;;;;;0.10;0.10;;;;;;;;;;5075960;28;20277;-66
2022/08/28 04:55:25;;;;;;;0.10;0.10;;;;;;;;;;5056680;28;20317;-67
2022/08/28 04:57:52;;;;;;;0.00;0.00;;;;;;;;;;5077011;28;20248;-66
2022/08/28 05:00:18;;;;;;;0.00;0.00;;;;;;;;;;5055567;28;20209;-67
2022/08/28 05:02:44;;;;;;;0.00;0.00;;;;;;;;;;5077899;28;20360;-66
2022/08/28 05:05:11;;;;;;;0.00;0.00;;;;;;;;;;5054777;28;20438;-67
2022/08/28 05:07:38;;;;;;;0.00;0.00;;;;;;;;;;5078661;28;20438;-67
2022/08/28 05:10:05;;;;;;;0.00;0.00;;;;;;;;;;5060980;28;20212;-66
2022/08/28 05:12:31;;;;;;;0.00;0.00;;;;;;;;;;5078772;28;20399;-66
2022/08/28 05:14:58;;;;;;;0.00;0.00;;;;;;;;;;5063567;28;20210;-66
2022/08/28 05:17:24;;;;;;;0.10;0.10;;;;;;;;;;5067941;28;20243;-65
2022/08/28 05:19:51;;;;;;;0.00;0.00;;;;;;;;;;5063901;28;20243;-68
2022/08/28 05:22:17;;;;;;;0.08;0.08;;;;;;;;;;5068763;28;20244;-67
2022/08/28 05:24:45;;;;;;;0.10;0.10;;;;;;;;;;5063745;28;20393;-66
2022/08/28 05:27:12;;;;;;;0.00;0.00;;;;;;;;;;5068714;28;20241;-67
2022/08/28 05:29:38;;;;;;;0.10;0.10;;;;;;;;;;5063624;28;20277;-66
2022/08/28 05:32:05;;;;;;;0.00;0.00;;;;;;;;;;5068431;28;20437;-67
2022/08/28 05:34:31;;;;;;;0.10;0.10;;;;;;;;;;5063154;28;20528;-66
2022/08/28 05:36:58;;;;;;;0.10;0.10;;;;;;;;;;5067437;28;20246;-66
2022/08/28 05:39:24;;;;;;;0.10;0.10;;;;;;;;;;5064537;28;20435;-67
2022/08/28 05:41:51;;;;;;;0.00;0.00;;;;;;;;;;5066609;28;20305;-66
2022/08/28 05:44:19;;;;;;;0.05;0.05;;;;;;;;;;5065016;28;20255;-66
2022/08/28 05:46:47;;;;;;;0.10;0.10;;;;;;;;;;5065829;28;20243;-70
2022/08/28 05:49:13;;;;;;;0.00;0.00;;;;;;;;;;5065619;28;20207;-66
2022/08/28 05:51:40;;;;;;;0.10;0.10;;;;;;;;;;5064938;28;20620;-66
2022/08/28 05:54:07;;;;;;;0.00;0.00;;;;;;;;;;5065788;28;20280;-66
2022/08/28 05:56:34;;;;;;;0.10;0.10;;;;;;;;;;5063648;28;20256;-66
2022/08/28 05:59:02;;;;;;;0.05;0.05;;;;;;;;;;5066774;28;20211;-65
2022/08/28 06:01:29;;;;;;;0.00;0.00;;;;;;;;;;5063053;28;20538;-66
2022/08/28 06:03:57;;;;;;;0.10;0.10;;;;;;;;;;5067675;28;20274;-66
2022/08/28 06:06:26;;;;;;;0.00;0.00;;;;;;;;;;5062496;28;20463;-66
2022/08/28 06:08:56;;;;;;;0.10;0.10;;;;;;;;;;5067768;28;20205;-66
2022/08/28 06:11:22;;;;;;;0.10;0.10;;;;;;;;;;5062070;28;20241;-67
2022/08/28 06:13:48;;;;;;;0.00;0.00;;;;;;;;;;5067923;28;20226;-67
2022/08/28 06:16:16;;;;;;;0.00;0.00;;;;;;;;;;5061544;28;20242;-67
2022/08/28 06:18:42;;;;;;;0.00;0.00;;;;;;;;;;5069386;28;20204;-68
2022/08/28 06:21:09;;;;;;;0.10;0.10;;;;;;;;;;5060480;28;20284;-66
2022/08/28 06:23:35;;;;;;;0.10;0.10;;;;;;;;;;5069809;28;20206;-67
2022/08/28 06:26:02;;;;;;;0.00;0.00;;;;;;;;;;5059865;28;20307;-66
2022/08/28 06:28:29;;;;;;;0.10;0.10;;;;;;;;;;5070219;28;20397;-67
2022/08/28 06:30:55;;;;;;;0.00;0.00;;;;;;;;;;5058338;28;20238;-68
2022/08/28 06:33:23;;;;;;;0.10;0.10;;;;;;;;;;5071082;28;20395;-66
2022/08/28 06:35:51;;;;;;;0.10;0.10;;;;;;;;;;5058018;28;20251;-66
2022/08/28 06:38:18;;;;;;;0.00;0.00;;;;;;;;;;5071871;28;20381;-66
2022/08/28 06:40:46;;;;;;;0.00;0.00;;;;;;;;;;5057519;28;20247;-67
2022/08/28 06:43:13;;;;;;;0.10;0.10;;;;;;;;;;5072507;28;20387;-67
2022/08/28 06:45:40;;;;;;;0.10;0.10;;;;;;;;;;5056569;28;20676;-70
2022/08/28 06:48:07;;;;;;;0.10;0.10;;;;;;;;;;5073112;28;20371;-66
2022/08/28 06:50:37;;;;;;;0.10;0.10;;;;;;;;;;5055408;28;20237;-67
2022/08/28 06:53:03;;;;;;;0.00;0.00;;;;;;;;;;5073515;28;20256;-67
2022/08/28 06:55:30;;;;;;;0.00;0.00;;;;;;;;;;5054893;28;20315;-66
2022/08/28 06:57:56;;;;;;;0.00;0.00;;;;;;;;;;5074494;28;20208;-66
2022/08/28 07:00:22;;;;;;;0.10;0.10;;;;;;;;;;5053906;28;20205;-67
2022/08/28 07:02:49;;;;;;;0.05;0.05;;;;;;;;;;5075429;28;20209;-67
2022/08/28 07:05:15;;;;;;;0.00;0.00;;;;;;;;;;5053085;28;20246;-66
2022/08/28 07:07:43;;;;;;;0.00;0.00;;;;;;;;;;5076140;28;20204;-66
2022/08/28 07:10:10;;;;;;;0.00;0.00;;;;;;;;;;5052279;28;20205;-65
2022/08/28 07:12:36;;;;;;;0.03;0.03;;;;;;;;;;5076663;28;20254;-66
2022/08/28 07:15:03;;;;;;;0.10;0.10;;;;;;;;;;5062186;28;20279;-65
2022/08/28 07:17:30;;;;;;;0.03;0.03;;;;;;;;;;5050503;28;20238;-66
2022/08/28 07:19:56;;;;;;;0.00;0.00;;;;;;;;;;5061978;28;20275;-66
2022/08/28 07:22:22;;;;;;;0.10;0.10;;;;;;;;;;5067191;28;20258;-67
2022/08/28 07:24:50;;;;;;;0.00;0.00;;;;;;;;;;5061847;28;20206;-66
2022/08/28 07:27:16;;;;;;;0.00;0.00;;;;;;;;;;5067167;28;20242;-66
2022/08/28 07:29:43;;;;;;;0.00;0.00;;;;;;;;;;5061958;28;20253;-68
2022/08/28 07:32:09;;;;;;;0.08;0.08;;;;;;;;;;5066937;28;20446;-67
2022/08/28 07:34:37;;;;;;;0.00;0.00;;;;;;;;;;5061716;28;20232;-67
2022/08/28 07:37:05;;;;;;;0.10;0.10;;;;;;;;;;5066782;28;20240;-66
2022/08/28 07:39:32;;;;;;;0.00;0.00;;;;;;;;;;5062907;28;20223;-67
2022/08/28 07:41:59;;;;;;;0.00;0.00;;;;;;;;;;5069974;28;20237;-67
2022/08/28 07:47:10;;;;;;;0.00;0.00;;;;;;;;;;5070600;28;20249;-67
2022/08/28 07:49:37;;;;;;;0.08;0.08;;;;;;;;;;5065316;28;20205;-66
2022/08/28 07:52:04;;;;;;;0.10;0.10;;;;;;;;;;5070190;28;20425;-66
2022/08/28 07:54:30;;;;;;;0.00;0.00;;;;;;;;;;5065373;28;20457;-67
2022/08/28 07:56:56;;;;;;;0.00;0.00;;;;;;;;;;5069213;28;20242;-66
2022/08/28 07:59:25;;;;;;;0.10;0.10;;;;;;;;;;5065753;28;20365;-66
2022/08/28 08:01:51;;;;;;;0.00;0.00;;;;;;;;;;5068270;28;20286;-67
2022/08/28 08:04:19;;;;;;;0.10;0.10;;;;;;;;;;5066832;28;20209;-67
2022/08/28 08:06:45;;;;;;;0.00;0.00;;;;;;;;;;5067614;28;20306;-67
2022/08/28 08:09:14;;;;;;;0.03;0.03;;;;;;;;;;5067878;28;20515;-66
2022/08/28 08:11:41;;;;;;;0.00;0.00;;;;;;;;;;5066931;28;20231;-67
2022/08/28 08:14:08;;;;;;;0.00;0.00;;;;;;;;;;5067614;28;20260;-67
2022/08/28 08:16:37;;;;;;;0.00;0.00;;;;;;;;;;5066062;28;20341;-67
2022/08/28 08:19:04;;;;;;;0.00;0.00;;;;;;;;;;5068541;28;20415;-66
2022/08/28 08:21:31;;;;;;;0.08;0.08;;;;;;;;;;5065344;28;20258;-66
2022/08/28 08:23:58;;;;;;;0.00;0.00;;;;;;;;;;5069062;28;20215;-66
2022/08/28 08:26:26;;;;;;;0.10;0.10;;;;;;;;;;5064674;28;20311;-66
2022/08/28 08:28:53;;;;;;;0.10;0.10;;;;;;;;;;5069762;28;20211;-67
2022/08/28 08:31:20;;;;;;;0.00;0.00;;;;;;;;;;5063523;28;20560;-67
2022/08/28 08:33:49;;;;;;;0.10;0.10;;;;;;;;;;5070185;28;20206;-66
2022/08/28 08:36:16;;;;;;;0.00;0.00;;;;;;;;;;5063153;28;20290;-66
2022/08/28 08:38:43;;;;;;;0.08;0.08;;;;;;;;;;5070476;28;20280;-67
2022/08/28 08:41:13;;;;;;;0.00;0.00;;;;;;;;;;5062281;28;20450;-66
2022/08/28 08:43:45;;;;;;;0.00;0.00;;;;;;;;;;5071188;28;20255;-66
2022/08/28 08:46:11;;;;;;;0.10;0.10;;;;;;;;;;5062624;28;20450;-67
2022/08/28 08:48:38;;;;;;;0.00;0.00;;;;;;;;;;5071029;28;20214;-67
2022/08/28 08:51:09;;;;;;;0.00;0.00;;;;;;;;;;5061119;28;20241;-66
2022/08/28 08:53:42;;;;;;;0.00;0.00;;;;;;;;;;5071548;28;20226;-67
2022/08/28 08:56:12;;;;;;;0.10;0.10;;;;;;;;;;5062137;28;20578;-66
2022/08/28 08:58:40;;;;;;;0.00;0.00;;;;;;;;;;5071151;28;20216;-66
2022/08/28 09:01:09;;;;;;;0.10;0.10;;;;;;;;;;5061376;28;20311;-66
2022/08/28 09:03:49;;;;;;;0.10;0.10;;;;;;;;;;5070855;28;20291;-66
2022/08/28 09:06:24;;;;;;;0.08;0.08;;;;;;;;;;5062909;28;20468;-67
2022/08/28 09:08:55;;;;;;;0.10;0.10;;;;;;;;;;5069504;28;20413;-66
2022/08/28 09:11:26;;;;;;;0.00;0.00;;;;;;;;;;5063262;28;20364;-66
2022/08/28 09:13:53;;;;;;;0.00;0.00;;;;;;;;;;5068742;28;20210;-66
2022/08/28 09:16:24;;;;;;;0.10;0.10;;;;;;;;;;5063158;28;20257;-66
2022/08/28 09:18:50;;;;;;;0.00;0.00;;;;;;;;;;5068839;28;20202;-67
2022/08/28 09:21:25;;;;;;;0.10;0.10;;;;;;;;;;5062541;28;20485;-66
2022/08/28 09:23:52;;;;;;;0.00;0.00;;;;;;;;;;5069115;28;20288;-67
2022/08/28 09:26:22;;;;;;;0.00;0.00;;;;;;;;;;5062762;28;20275;-66
2022/08/28 09:28:58;;;;;;;0.00;0.00;;;;;;;;;;5069167;28;20207;-67
2022/08/28 09:31:30;;;;;;;0.10;0.10;;;;;;;;;;5063458;28;20286;-65
2022/08/28 09:34:15;;;;;;;0.05;0.05;;;;;;;;;;5068144;28;20192;-66
2022/08/28 09:36:43;;;;;;;0.00;0.00;;;;;;;;;;5065521;28;20253;-66
2022/08/28 09:39:11;;;;;;;0.10;0.10;;;;;;;;;;5066222;28;20205;-67
2022/08/28 09:44:24;;;;;;;0.00;0.00;;;;;;;;;;5064054;28;20188;-68
2022/08/28 09:46:51;;;;;;;0.00;0.00;;;;;;;;;;5066485;28;20240;-69
2022/08/28 09:49:22;;;;;;;0.05;0.05;;;;;;;;;;5064904;28;20215;-66
2022/08/28 09:51:50;;;;;;;0.00;0.00;;;;;;;;;;5065862;28;20302;-67
2022/08/28 09:54:20;;;;;;;0.00;0.00;;;;;;;;;;5064926;28;20244;-66
2022/08/28 09:56:47;;;;;;;0.00;0.00;;;;;;;;;;5065652;28;20312;-66
2022/08/28 09:59:14;;;;;;;0.00;0.00;;;;;;;;;;5065363;28;20206;-65
2022/08/28 10:01:47;;;;;;;0.00;0.00;;;;;;;;;;5064381;28;20289;-66
2022/08/28 10:04:33;;;;;;;0.00;0.00;;;;;;;;;;5064855;28;20525;-66
2022/08/28 10:07:03;;;;;;;0.00;0.00;;;;;;;;;;5067807;28;20283;-67
2022/08/28 10:09:32;;;;;;;0.00;0.00;;;;;;;;;;5062940;28;20263;-67
2022/08/28 10:12:04;;;;;;;0.00;0.00;;;;;;;;;;5066719;28;20341;-67
2022/08/28 10:14:38;;;;;;;0.03;0.03;;;;;;;;;;5062587;28;20268;-66
2022/08/28 10:17:08;;;;;;;0.00;0.00;;;;;;;;;;5067796;28;20244;-68
2022/08/28 10:19:37;;;;;;;0.00;0.00;;;;;;;;;;5062246;28;20232;-66
2022/08/28 10:22:10;;;;;;;0.10;0.10;;;;;;;;;;5067160;28;20291;-66
2022/08/28 10:24:46;;;;;;;0.08;0.08;;;;;;;;;;5062402;28;20193;-68
2022/08/28 10:27:19;;;;;;;0.00;0.00;;;;;;;;;;5067556;28;20240;-72
2022/08/28 10:29:49;;;;;;;0.00;0.00;;;;;;;;;;5062485;28;20213;-73
2022/08/28 10:32:22;;;;;;;0.00;0.00;;;;;;;;;;5067385;28;20419;-67
2022/08/28 10:34:53;;;;;;;0.00;0.00;;;;;;;;;;5062427;28;20360;-72
2022/08/28 10:37:27;;;;;;;0.00;0.00;;;;;;;;;;5067589;28;20242;-69
2022/08/28 10:39:54;;;;;;;0.00;0.00;;;;;;;;;;5062534;28;20202;-68
2022/08/28 10:42:25;;;;;;;0.00;0.00;;;;;;;;;;5067580;28;20510;-71
2022/08/28 10:44:54;;;;;;;0.00;0.00;;;;;;;;;;5062178;28;20275;-71
2022/08/28 10:47:22;;;;;;;0.00;0.00;;;;;;;;;;5067804;28;20437;-70
2022/08/28 10:49:50;;;;;;;0.00;0.00;;;;;;;;;;5062065;28;20409;-71
2022/08/28 10:52:21;;;;;;;0.00;0.00;;;;;;;;;;5067376;28;20238;-71
2022/08/28 10:54:50;;;;;;;0.08;0.08;;;;;;;;;;5062437;28;20218;-70
2022/08/28 10:57:22;;;;;;;0.00;0.00;;;;;;;;;;5067461;28;20272;-64
2022/08/28 10:59:51;;;;;;;0.00;0.00;;;;;;;;;;5062103;28;20542;-65
2022/08/28 11:02:20;;;;;;;0.00;0.00;;;;;;;;;;5067470;28;20249;-64
2022/08/28 11:04:46;;;;;;;0.00;0.00;;;;;;;;;;5062462;28;20217;-70
2022/08/28 11:07:15;;;;;;;0.00;0.00;;;;;;;;;;5067549;28;20245;-69
2022/08/28 11:09:44;;;;;;;0.10;0.10;;;;;;;;;;5062055;28;20284;-70
2022/08/28 11:12:33;;;;;;;0.03;0.03;;;;;;;;;;5067193;28;20569;-69
2022/08/28 11:15:20;;;;;;;0.00;0.00;;;;;;;;;;5065656;28;20206;-68
2022/08/28 11:17:47;;;;;;;0.00;0.00;;;;;;;;;;5065886;28;20225;-70
2022/08/28 11:20:15;;;;;;;0.00;0.00;;;;;;;;;;5056624;28;20274;-70
2022/08/28 11:22:45;;;;;;;0.10;0.10;;;;;;;;;;5080030;28;20538;-69
2022/08/28 11:25:14;;;;;;;0.00;0.00;;;;;;;;;;5056607;28;20422;-69
2022/08/28 11:28:02;;;;;;;0.10;0.10;;;;;;;;;;5080161;28;20206;-67
2022/08/28 11:30:32;;;;;;;0.00;0.00;;;;;;;;;;5058327;28;20393;-68
2022/08/28 11:33:03;;;;;;;0.00;0.00;;;;;;;;;;5077676;28;20422;-66
2022/08/28 11:35:47;;;;;;;0.00;0.00;;;;;;;;;;5058499;28;20309;-66
2022/08/28 11:38:28;;;;;;;0.00;0.00;;;;;;;;;;5075680;28;20212;-66
2022/08/28 11:40:56;;;;;;;0.10;0.10;;;;;;;;;;5061464;28;20247;-65
2022/08/28 11:43:39;;;;;;;0.05;0.05;;;;;;;;;;5074304;28;20206;-64
2022/08/28 11:46:10;;;;;;;0.00;0.00;;;;;;;;;;5062742;28;20245;-70
2022/08/28 11:48:48;;;;;;;0.05;0.05;;;;;;;;;;5072237;28;20251;-71
2022/08/28 11:51:26;;;;;;;0.10;0.10;;;;;;;;;;5063742;28;20308;-73
2022/08/28 11:53:57;;;;;;;0.05;0.05;;;;;;;;;;5069816;28;20219;-71
2022/08/28 11:56:39;;;;;;;0.00;0.00;;;;;;;;;;5064821;28;20255;-70
2022/08/28 11:59:20;;;;;;;0.10;0.10;;;;;;;;;;5068636;28;20443;-71
2022/08/28 12:01:48;;;;;;;0.10;0.10;;;;;;;;;;5065560;28;20242;-72
2022/08/28 12:04:16;;;;;;;0.00;0.00;;;;;;;;;;5067623;28;20238;-72
2022/08/28 12:06:53;;;;;;;0.10;0.10;;;;;;;;;;5067275;28;20242;-71
2022/08/28 12:09:38;;;;;;;0.00;0.00;;;;;;;;;;5066452;28;20200;-72
2022/08/28 12:12:05;;;;;;;0.10;0.10;;;;;;;;;;5069955;28;20244;-72
2022/08/28 12:15:02;;;;;;;0.10;0.10;;;;;;;;;;5064862;28;20276;-72
2022/08/28 12:17:50;;;;;;;0.00;0.00;;;;;;;;;;5070179;28;20513;-72
2022/08/28 12:20:24;;;;;;;0.00;0.00;;;;;;;;;;5055877;28;20281;-73
2022/08/28 12:22:52;;;;;;;0.00;0.00;;;;;;;;;;5077473;28;20373;-71
2022/08/28 12:25:24;;;;;;;0.03;0.03;;;;;;;;;;5055223;28;20205;-73
2022/08/28 12:27:51;;;;;;;0.10;0.10;;;;;;;;;;5077815;28;20278;-75
2022/08/28 12:30:26;;;;;;;0.05;0.05;;;;;;;;;;5055727;28;20211;-73
2022/08/28 12:32:55;;;;;;;0.00;0.00;;;;;;;;;;5077330;28;20203;-69
2022/08/28 12:35:24;;;;;;;0.00;0.00;;;;;;;;;;5056539;28;20276;-73
2022/08/28 12:37:59;;;;;;;0.05;0.05;;;;;;;;;;5077548;28;20354;-72
2022/08/28 12:40:26;;;;;;;0.00;0.00;;;;;;;;;;5057240;28;20482;-72
2022/08/28 12:42:55;;;;;;;0.10;0.10;;;;;;;;;;5077063;28;20232;-72
2022/08/28 12:45:24;;;;;;;0.00;0.00;;;;;;;;;;5055884;28;20215;-68
2022/08/28 12:47:52;;;;;;;0.00;0.00;;;;;;;;;;5077115;28;20214;-68
2022/08/28 12:50:26;;;;;;;0.00;0.00;;;;;;;;;;5055569;28;20230;-67
2022/08/28 12:52:54;;;;;;;0.00;0.00;;;;;;;;;;5077001;28;20272;-67
2022/08/28 12:55:21;;;;;;;0.00;0.00;;;;;;;;;;5055742;28;20205;-67
2022/08/28 12:57:48;;;;;;;0.00;0.00;;;;;;;;;;5076934;28;20213;-67
2022/08/28 13:00:17;;;;;;;0.08;0.08;;;;;;;;;;5054960;28;20462;-66
2022/08/28 13:02:43;;;;;;;0.00;0.00;;;;;;;;;;5077686;28;20226;-66
2022/08/28 13:05:11;;;;;;;0.00;0.00;;;;;;;;;;5054502;28;20288;-67
2022/08/28 13:07:40;;;;;;;0.00;0.00;;;;;;;;;;5078545;28;20293;-67
2022/08/28 13:10:18;;;;;;;0.00;0.00;;;;;;;;;;5054043;28;20239;-66
2022/08/28 13:12:44;;;;;;;0.00;0.00;;;;;;;;;;5063981;28;20219;-67
2022/08/28 13:15:11;;;;;;;0.10;0.10;;;;;;;;;;5054121;28;20214;-67
2022/08/28 13:17:45;;;;;;;0.00;0.00;;;;;;;;;;5078152;28;20505;-66
2022/08/28 13:20:14;;;;;;;0.00;0.00;;;;;;;;;;5053956;28;20209;-67
2022/08/28 13:22:42;;;;;;;0.00;0.00;;;;;;;;;;5077385;28;20228;-68
2022/08/28 13:25:08;;;;;;;0.00;0.00;;;;;;;;;;5053807;28;20358;-67
2022/08/28 13:27:35;;;;;;;0.03;0.03;;;;;;;;;;5078133;28;20208;-67
2022/08/28 13:30:07;;;;;;;0.10;0.10;;;;;;;;;;5063206;28;20205;-67
2022/08/28 13:32:34;;;;;;;0.00;0.00;;;;;;;;;;5051955;28;20287;-67
2022/08/28 13:35:22;;;;;;;0.00;0.00;;;;;;;;;;5063169;28;20250;-67
2022/08/28 13:37:51;;;;;;;0.10;0.10;;;;;;;;;;5058412;28;20235;-68
2022/08/28 13:40:19;;;;;;;0.00;0.00;;;;;;;;;;5054765;28;20409;-67
2022/08/28 13:42:45;;;;;;;0.10;0.10;;;;;;;;;;5076937;28;20276;-67
2022/08/28 13:45:12;;;;;;;0.10;0.10;;;;;;;;;;5054530;28;20273;-67
2022/08/28 13:47:38;;;;;;;0.10;0.10;;;;;;;;;;5077997;28;20211;-66
2022/08/28 13:50:05;;;;;;;0.03;0.03;;;;;;;;;;5063087;28;20211;-65
2022/08/28 13:52:32;;;;;;;0.10;0.10;;;;;;;;;;5068084;28;20247;-65
2022/08/28 13:55:00;;;;;;;0.00;0.00;;;;;;;;;;5062706;28;20207;-66
2022/08/28 13:57:26;;;;;;;0.08;0.08;;;;;;;;;;5068081;28;20559;-65
2022/08/28 13:59:53;;;;;;;0.03;0.03;;;;;;;;;;5063166;28;20208;-65
2022/08/28 14:05:04;;;;;;;0.00;0.00;;;;;;;;;;5062776;28;20273;-67
2022/08/28 14:07:31;;;;;;;0.00;0.00;;;;;;;;;;5051254;28;20260;-65
2022/08/28 14:09:58;;;;;;;0.10;0.10;;;;;;;;;;5062635;28;20216;-66
2022/08/28 14:12:26;;;;;;;0.00;0.00;;;;;;;;;;5067824;28;20301;-65
2022/08/28 14:14:52;;;;;;;0.10;0.10;;;;;;;;;;5062900;28;20231;-66
2022/08/28 14:17:20;;;;;;;0.00;0.00;;;;;;;;;;5068047;28;20489;-66
2022/08/28 14:19:46;;;;;;;0.00;0.00;;;;;;;;;;5062819;28;20477;-66
2022/08/28 14:22:13;;;;;;;0.00;0.00;;;;;;;;;;5067862;28;20438;-65
2022/08/28 14:24:40;;;;;;;0.00;0.00;;;;;;;;;;5062684;28;20463;-67
2022/08/28 14:27:06;;;;;;;0.10;0.10;;;;;;;;;;5067364;28;20314;-65
2022/08/28 14:29:34;;;;;;;0.00;0.00;;;;;;;;;;5062306;28;20210;-66
2022/08/28 14:32:02;;;;;;;0.00;0.00;;;;;;;;;;5067140;28;20542;-66
2022/08/28 14:34:30;;;;;;;0.00;0.00;;;;;;;;;;5062721;28;20202;-67
2022/08/28 14:36:57;;;;;;;0.10;0.10;;;;;;;;;;5066495;28;20241;-67
2022/08/28 14:39:25;;;;;;;0.03;0.03;;;;;;;;;;5063014;28;20210;-67
2022/08/28 14:41:52;;;;;;;0.00;0.00;;;;;;;;;;5065607;28;20268;-66
2022/08/28 14:44:19;;;;;;;0.00;0.00;;;;;;;;;;5063640;28;20230;-67
2022/08/28 14:46:48;;;;;;;0.00;0.00;;;;;;;;;;5064732;28;20241;-67
2022/08/28 14:49:15;;;;;;;0.00;0.00;;;;;;;;;;5064132;28;20242;-67
2022/08/28 14:51:42;;;;;;;0.00;0.00;;;;;;;;;;5064219;28;20316;-67
2022/08/28 14:54:10;;;;;;;0.05;0.05;;;;;;;;;;5064909;28;20210;-67
2022/08/28 14:56:36;;;;;;;0.00;0.00;;;;;;;;;;5063570;28;20238;-67
2022/08/28 14:59:04;;;;;;;0.08;0.08;;;;;;;;;;5065670;28;20454;-66